Aviation Digital Data Service (ADDS)

Output produced by METARs form (2326 UTC 12 April 2021)
found at http://www.aviationweather.gov/metar/data/
 
METAR text: KPWA 122253Z 36015KT 10SM CLR 18/01 A2993 RMK AO2 SLP131 T01780011
Conditions at: KPWA (OKLA CITY/WILEY , OK, US) observed 2253 UTC 12 April 2021
Temperature: 17.8°C (64°F)
Dewpoint: 1.1°C (34°F) [RH = 32%]
Pressure (altimeter): 29.93 inches Hg (1013.6 mb)
[Sea-level pressure: 1013.1 mb]
Winds: from the N (360 degrees) at 17 MPH (15 knots; 7.7 m/s)
Visibility: 10 or more miles (16+ km)
Ceiling: at least 12,000 feet AGL
Clouds: sky clear below 12,000 feet AGL
Weather: no significant weather observed at this time